createdAt,value
2024-01-19T08:43:37.990Z,365.62
2024-01-19T08:44:38.757Z,331.88
2024-01-19T08:46:15.063Z,219.38
2024-01-19T08:47:15.805Z,258.75
2024-01-19T08:48:16.638Z,230.62
2024-01-19T08:49:17.422Z,337.50
2024-01-19T08:50:18.198Z,337.50
2024-01-19T08:51:18.972Z,331.88
2024-01-19T08:52:19.736Z,309.38
2024-01-19T08:53:20.491Z,298.12
2024-01-19T08:54:21.306Z,275.62
2024-01-19T08:55:22.073Z,275.62
2024-01-19T08:56:22.832Z,292.50
2024-01-19T08:57:23.592Z,298.12
2024-01-19T08:58:24.333Z,309.38
2024-01-19T08:59:25.127Z,315.00
2024-01-19T09:00:25.901Z,326.25
2024-01-19T09:01:26.650Z,360.00
2024-01-19T09:02:27.441Z,416.25
2024-01-19T09:03:28.280Z,421.88
2024-01-19T09:04:29.124Z,500.62
2024-01-19T09:05:30.137Z,523.12
2024-01-19T09:06:31.137Z,472.50
2024-01-19T09:07:31.689Z,438.75
2024-01-19T09:08:32.485Z,427.50
2024-01-19T09:09:33.248Z,410.62
2024-01-19T09:10:34.004Z,433.12
2024-01-19T09:11:34.814Z,517.50
2024-01-19T09:12:35.539Z,528.75
2024-01-19T09:13:36.298Z,517.50
2024-01-19T09:14:37.135Z,528.75
2024-01-19T09:15:37.918Z,545.62
2024-01-19T09:16:38.668Z,534.38
2024-01-19T09:17:39.503Z,641.25
2024-01-19T09:18:40.460Z,579.38
2024-01-19T09:19:40.831Z,585.00
2024-01-19T09:20:41.626Z,652.50
2024-01-19T09:21:42.330Z,641.25
2024-01-19T09:22:43.086Z,646.88
2024-01-19T09:23:43.922Z,607.50
2024-01-19T09:24:46.380Z,624.38
2024-01-19T09:25:45.280Z,652.50
2024-01-19T09:26:46.096Z,697.50
2024-01-19T09:27:46.841Z,776.25
2024-01-19T09:28:47.628Z,708.75
2024-01-19T09:29:48.399Z,759.38
2024-01-19T09:30:49.139Z,776.25
2024-01-19T09:31:49.956Z,781.88
2024-01-19T09:32:50.761Z,787.50
2024-01-19T09:33:51.689Z,900.00
2024-01-19T09:34:52.499Z,961.88
2024-01-19T09:35:55.100Z,765.00
2024-01-19T09:36:53.782Z,720.00
2024-01-19T09:37:54.554Z,815.62
2024-01-19T09:38:55.311Z,815.62
2024-01-19T09:39:56.172Z,821.25
2024-01-19T09:40:56.970Z,905.62
2024-01-19T09:41:57.810Z,894.38
2024-01-19T09:42:58.554Z,950.62
2024-01-19T09:43:59.306Z,849.38
2024-01-19T09:45:00.150Z,871.88
2024-01-19T09:46:00.943Z,984.38
2024-01-19T09:47:01.735Z,1006.88
2024-01-19T09:48:02.538Z,1023.75
2024-01-19T09:49:03.388Z,1012.50
2024-01-19T09:50:04.141Z,1023.75
2024-01-19T09:51:04.954Z,1006.88
2024-01-19T09:52:05.718Z,1040.62
2024-01-19T09:53:06.482Z,1029.38
2024-01-19T09:54:07.206Z,905.62
2024-01-19T09:55:07.977Z,1006.88
2024-01-19T09:56:08.741Z,1080.00
2024-01-19T09:57:09.520Z,1085.62
2024-01-19T09:58:10.237Z,905.62
2024-01-19T09:59:10.987Z,990.00
2024-01-19T10:00:11.745Z,1113.75
2024-01-19T10:01:12.543Z,1046.25
2024-01-19T10:02:13.320Z,956.25
2024-01-19T10:03:14.113Z,883.12
2024-01-19T10:04:14.906Z,815.62
2024-01-19T10:05:15.726Z,793.12
2024-01-19T10:06:16.691Z,815.62
2024-01-19T10:07:17.468Z,905.62
2024-01-19T10:08:18.225Z,1085.62
2024-01-19T10:09:18.990Z,1063.12
2024-01-19T10:10:19.760Z,978.75
2024-01-19T10:11:20.499Z,928.12
2024-01-19T10:12:21.279Z,888.75
2024-01-19T10:13:22.000Z,787.50
2024-01-19T10:14:22.798Z,883.12
2024-01-19T10:15:23.561Z,950.62
2024-01-19T10:16:24.315Z,905.62
2024-01-19T10:17:25.227Z,894.38
2024-01-19T10:18:26.125Z,1023.75
2024-01-19T10:19:26.963Z,1096.88
2024-01-19T10:20:27.729Z,961.88
2024-01-19T10:21:28.480Z,883.12
2024-01-19T10:22:29.230Z,939.38
2024-01-19T10:23:30.014Z,978.75
2024-01-19T10:24:30.760Z,990.00
2024-01-19T10:25:31.566Z,888.75
2024-01-19T10:26:32.333Z,849.38
2024-01-19T10:27:33.076Z,832.50
2024-01-19T10:28:33.830Z,900.00
2024-01-19T10:29:34.658Z,984.38
2024-01-19T10:30:35.371Z,1153.12
2024-01-19T10:31:36.129Z,1288.12
2024-01-19T10:32:36.935Z,1080.00
2024-01-19T10:33:37.772Z,1170.00
2024-01-19T10:34:38.639Z,1243.12
2024-01-19T10:35:41.599Z,1175.62
2024-01-19T10:36:40.206Z,1080.00
2024-01-19T10:37:40.953Z,1158.75
2024-01-19T10:38:41.757Z,1327.50
2024-01-19T10:39:42.496Z,1181.25
2024-01-19T10:40:43.255Z,1170.00
2024-01-19T10:41:44.029Z,1181.25
2024-01-19T10:42:44.816Z,1108.12
2024-01-19T10:43:45.572Z,1091.25
2024-01-19T10:44:46.328Z,1063.12
2024-01-19T10:45:47.083Z,1001.25
2024-01-19T10:46:47.837Z,1108.12
2024-01-19T10:47:48.696Z,1260.00
2024-01-19T10:48:49.533Z,1479.38
2024-01-19T10:49:50.296Z,1501.88
2024-01-19T10:50:51.084Z,1327.50
2024-01-19T10:51:51.853Z,1243.12
2024-01-19T10:52:52.660Z,1310.62
2024-01-19T10:53:53.578Z,1389.38
2024-01-19T10:54:54.320Z,1254.38
2024-01-19T10:55:55.075Z,1203.75
2024-01-19T10:56:55.933Z,1136.25
2024-01-19T10:57:57.676Z,1108.12
2024-01-19T10:58:57.587Z,1091.25
2024-01-19T10:59:58.362Z,973.12
2024-01-19T11:00:59.186Z,984.38
2024-01-19T11:02:00.058Z,1091.25
2024-01-19T11:03:00.882Z,1102.50
2024-01-19T11:04:01.721Z,945.00
2024-01-19T11:05:02.430Z,843.75
2024-01-19T11:06:03.275Z,894.38
2024-01-19T11:07:04.268Z,900.00
2024-01-19T11:08:04.630Z,860.62
2024-01-19T11:09:05.397Z,776.25
2024-01-19T11:10:06.140Z,826.88
2024-01-19T11:11:06.936Z,855.00
2024-01-19T11:12:07.710Z,821.25
2024-01-19T11:13:08.453Z,877.50
2024-01-19T11:14:09.204Z,894.38
2024-01-19T11:15:10.174Z,860.62
2024-01-19T11:16:10.987Z,961.88
2024-01-19T11:17:11.748Z,961.88
2024-01-19T11:18:12.584Z,956.25
2024-01-19T11:19:13.496Z,1063.12
2024-01-19T11:20:14.389Z,1023.75
2024-01-19T11:21:15.150Z,1035.00
2024-01-19T11:22:15.875Z,1074.38
2024-01-19T11:23:16.625Z,1018.12
2024-01-19T11:24:17.393Z,1001.25
2024-01-19T11:25:18.188Z,945.00
2024-01-19T11:26:18.954Z,933.75
2024-01-19T11:27:19.698Z,916.88
2024-01-19T11:28:20.485Z,945.00
2024-01-19T11:29:21.250Z,950.62
2024-01-19T11:30:22.032Z,894.38
2024-01-19T11:31:22.781Z,950.62
2024-01-19T11:32:23.530Z,1040.62
2024-01-19T11:33:24.412Z,1040.62
2024-01-19T11:34:25.293Z,1108.12
2024-01-19T11:35:26.019Z,1305.00
2024-01-19T11:36:26.764Z,1501.88
2024-01-19T11:37:27.544Z,1378.12
2024-01-19T11:38:28.348Z,1338.75
2024-01-19T11:39:29.091Z,1383.75
2024-01-19T11:40:29.834Z,1271.25
2024-01-19T11:41:30.618Z,1080.00
2024-01-19T11:42:31.337Z,1046.25
2024-01-19T11:43:32.148Z,1400.62
2024-01-19T11:44:32.898Z,1428.75
2024-01-19T11:45:33.625Z,1428.75
2024-01-19T11:46:34.389Z,1080.00
2024-01-19T11:47:35.323Z,928.12
2024-01-19T11:48:35.788Z,939.38
2024-01-19T11:49:36.785Z,1074.38
2024-01-19T11:50:37.213Z,1226.25
2024-01-19T11:51:37.946Z,1310.62
2024-01-19T11:52:38.854Z,1158.75
2024-01-19T11:53:39.670Z,1254.38
2024-01-19T11:54:40.394Z,1181.25
2024-01-19T11:55:41.152Z,1276.88
2024-01-19T11:56:41.920Z,1462.50
2024-01-19T11:57:42.681Z,1355.62
2024-01-19T11:58:43.473Z,1260.00
2024-01-19T11:59:44.225Z,1271.25
2024-01-19T12:00:44.978Z,1260.00
2024-01-19T12:01:45.748Z,1170.00
2024-01-19T12:02:46.568Z,1215.00
2024-01-19T12:03:47.279Z,1085.62
2024-01-19T12:04:48.091Z,1080.00
2024-01-19T12:05:48.935Z,1125.00
2024-01-19T12:06:49.834Z,1108.12
2024-01-19T12:07:50.601Z,1209.38
2024-01-19T12:08:51.351Z,1344.38
2024-01-19T12:09:52.125Z,1428.75
2024-01-19T12:10:52.869Z,1395.00
2024-01-19T12:11:53.688Z,1355.62
2024-01-19T12:12:54.439Z,1316.25
2024-01-19T12:14:01.720Z,1074.38
2024-01-19T12:14:56.830Z,1198.12
2024-01-19T12:15:56.612Z,1276.88
2024-01-19T12:16:57.394Z,1254.38
2024-01-19T12:17:58.327Z,1299.38
2024-01-19T12:18:59.080Z,1361.25
2024-01-19T12:20:00.082Z,1186.88
2024-01-19T12:21:00.393Z,1125.00
2024-01-19T12:22:01.142Z,1175.62
2024-01-19T12:23:02.000Z,1147.50
2024-01-19T12:24:02.781Z,916.88
2024-01-19T12:25:03.560Z,911.25
2024-01-19T12:26:04.411Z,894.38
2024-01-19T12:27:05.230Z,928.12
2024-01-19T12:28:05.992Z,1001.25
2024-01-19T12:29:06.883Z,939.38
2024-01-19T12:30:07.618Z,1175.62
2024-01-19T12:31:08.400Z,1164.38
2024-01-19T12:32:09.255Z,1226.25
2024-01-19T12:33:10.051Z,1153.12
2024-01-19T12:34:10.822Z,1029.38
2024-01-19T12:35:11.661Z,1198.12
2024-01-19T12:36:12.434Z,1102.50
2024-01-19T12:37:13.202Z,945.00
2024-01-19T12:38:13.964Z,950.62
2024-01-19T12:39:14.705Z,961.88
2024-01-19T12:40:15.496Z,1029.38
2024-01-19T12:41:16.265Z,922.50
2024-01-19T12:42:17.004Z,945.00
2024-01-19T12:43:17.750Z,995.62
2024-01-19T12:44:18.558Z,832.50
2024-01-19T12:45:19.454Z,798.75
2024-01-19T12:46:22.075Z,804.38
2024-01-19T12:47:21.074Z,894.38
2024-01-19T12:48:28.789Z,1040.62
2024-01-19T12:49:23.470Z,939.38
2024-01-19T12:50:24.380Z,843.75
2024-01-19T12:51:23.929Z,731.25
2024-01-19T12:52:24.674Z,708.75
2024-01-19T12:53:25.438Z,793.12
2024-01-19T12:54:26.231Z,1063.12
2024-01-19T12:55:27.064Z,1147.50
2024-01-19T12:56:27.804Z,1040.62
2024-01-19T12:57:28.557Z,1018.12
2024-01-19T12:58:29.356Z,1248.75
2024-01-19T12:59:30.113Z,1440.00
2024-01-19T13:00:30.851Z,1186.88
2024-01-19T13:01:31.664Z,995.62
2024-01-19T13:02:32.388Z,871.88
2024-01-19T13:03:33.265Z,787.50
2024-01-19T13:04:34.020Z,883.12
2024-01-19T13:05:34.823Z,1012.50
2024-01-19T13:06:35.552Z,1170.00
2024-01-19T13:07:36.347Z,1113.75
2024-01-19T13:08:37.087Z,1035.00
2024-01-19T13:09:37.838Z,1125.00
2024-01-19T13:10:38.618Z,1141.88
2024-01-19T13:11:39.345Z,1192.50
2024-01-19T13:12:40.125Z,1040.62
2024-01-19T13:13:40.945Z,928.12
2024-01-19T13:14:41.716Z,916.88
2024-01-19T13:15:42.437Z,967.50
2024-01-19T13:16:43.243Z,961.88
2024-01-19T13:17:44.074Z,849.38
2024-01-19T13:18:44.850Z,860.62
2024-01-19T13:19:45.636Z,990.00
2024-01-19T13:20:46.510Z,916.88
2024-01-19T13:21:47.253Z,860.62
2024-01-19T13:22:48.042Z,810.00
2024-01-19T13:23:48.756Z,843.75
2024-01-19T13:24:49.512Z,961.88
2024-01-19T13:25:50.303Z,1023.75
2024-01-19T13:26:51.076Z,995.62
2024-01-19T13:27:51.823Z,973.12
2024-01-19T13:28:52.723Z,916.88
2024-01-19T13:29:53.556Z,961.88
2024-01-19T13:30:54.283Z,1074.38
2024-01-19T13:31:55.071Z,1006.88
2024-01-19T13:32:55.811Z,832.50
2024-01-19T13:33:56.570Z,916.88
2024-01-19T13:34:57.333Z,916.88
2024-01-19T13:35:58.079Z,826.88
2024-01-19T13:36:58.892Z,871.88
2024-01-19T13:37:59.674Z,922.50
2024-01-19T13:39:00.411Z,849.38
2024-01-19T13:40:01.180Z,866.25
2024-01-19T13:41:01.995Z,877.50
2024-01-19T13:42:02.753Z,933.75
2024-01-19T13:43:03.512Z,933.75
2024-01-19T13:44:04.322Z,894.38
2024-01-19T13:45:05.103Z,956.25
2024-01-19T13:46:05.833Z,1108.12
2024-01-19T13:47:06.662Z,916.88
2024-01-19T13:48:07.386Z,810.00
2024-01-19T13:49:08.242Z,815.62
2024-01-19T13:50:09.182Z,933.75
2024-01-19T13:51:09.956Z,798.75
2024-01-19T13:52:10.698Z,781.88
2024-01-19T13:53:11.519Z,736.88
2024-01-19T13:54:12.265Z,804.38
2024-01-19T13:55:13.027Z,669.38
2024-01-19T13:56:13.865Z,680.62
2024-01-19T13:57:14.624Z,731.25
2024-01-19T13:58:15.384Z,714.38
2024-01-19T13:59:16.191Z,658.12
2024-01-19T14:00:16.974Z,663.75
2024-01-19T14:01:17.713Z,624.38
2024-01-19T14:02:18.491Z,630.00
2024-01-19T14:03:19.346Z,607.50
2024-01-19T14:04:20.139Z,613.12
2024-01-19T14:05:21.012Z,607.50
2024-01-19T14:06:21.858Z,691.88
2024-01-19T14:07:22.580Z,624.38
2024-01-19T14:08:23.410Z,596.25
2024-01-19T14:09:24.154Z,601.88
2024-01-19T14:10:24.905Z,708.75
2024-01-19T14:11:25.668Z,658.12
2024-01-19T14:12:26.413Z,568.12
2024-01-19T14:13:27.312Z,568.12
2024-01-19T14:14:28.053Z,635.62
2024-01-19T14:15:33.845Z,624.38
2024-01-19T14:16:30.477Z,663.75
2024-01-19T14:17:30.242Z,601.88
2024-01-19T14:18:32.821Z,646.88
2024-01-19T14:19:31.966Z,573.75
2024-01-19T14:20:32.765Z,590.62
2024-01-19T14:21:33.494Z,607.50
2024-01-19T14:22:34.386Z,675.00
2024-01-19T14:23:35.118Z,669.38
2024-01-19T14:24:35.858Z,585.00
2024-01-19T14:25:36.687Z,573.75
2024-01-19T14:26:37.430Z,646.88
2024-01-19T14:27:38.220Z,590.62
2024-01-19T14:28:38.990Z,646.88
2024-01-19T14:29:39.747Z,601.88
2024-01-19T14:30:40.493Z,607.50
2024-01-19T14:31:41.323Z,624.38
2024-01-19T14:32:42.082Z,528.75
2024-01-19T14:33:42.900Z,540.00
2024-01-19T14:34:50.318Z,573.75
2024-01-19T14:35:45.273Z,585.00
2024-01-19T14:36:45.015Z,585.00
2024-01-19T14:37:45.813Z,579.38
2024-01-19T14:38:46.580Z,562.50
2024-01-19T14:39:47.288Z,556.88
2024-01-19T14:40:48.184Z,517.50
2024-01-19T14:41:48.944Z,545.62
2024-01-19T14:42:50.838Z,534.38
2024-01-19T14:43:50.639Z,528.75
2024-01-19T14:44:51.380Z,489.38
2024-01-19T14:45:52.184Z,506.25
2024-01-19T14:46:52.925Z,506.25
2024-01-19T14:47:53.826Z,500.62
2024-01-19T14:48:54.554Z,500.62
2024-01-19T14:49:55.358Z,495.00
2024-01-19T14:50:56.359Z,438.75
2024-01-19T14:51:57.069Z,433.12
2024-01-19T14:52:57.911Z,489.38
2024-01-19T14:53:58.507Z,489.38
2024-01-19T14:54:59.204Z,461.25
2024-01-19T14:56:01.602Z,450.00
2024-01-19T14:57:00.627Z,438.75
2024-01-19T14:58:01.350Z,427.50
2024-01-19T14:59:02.235Z,427.50
2024-01-19T15:00:03.124Z,421.88
2024-01-19T15:01:03.938Z,416.25
2024-01-19T15:02:04.723Z,421.88
2024-01-19T15:03:05.492Z,388.12
2024-01-19T15:04:06.285Z,376.88
2024-01-19T15:05:07.048Z,371.25
2024-01-19T15:06:07.792Z,365.62
2024-01-19T15:07:08.665Z,354.38
2024-01-19T15:08:09.447Z,343.12
2024-01-19T15:09:10.234Z,331.88
2024-01-19T15:10:10.973Z,320.62
2024-01-19T15:11:11.786Z,309.38
2024-01-19T15:12:12.532Z,286.88
2024-01-19T15:13:13.284Z,275.62
2024-01-19T15:14:14.315Z,275.62
2024-01-19T15:15:14.645Z,247.50
2024-01-19T15:16:15.421Z,258.75
2024-01-19T15:17:16.204Z,253.12
2024-01-19T15:18:16.967Z,241.88
2024-01-19T15:19:17.792Z,241.88
2024-01-19T15:20:18.663Z,236.25
2024-01-19T15:21:19.445Z,213.75
2024-01-19T15:22:20.200Z,196.88
2024-01-19T15:23:20.976Z,191.25
2024-01-19T15:24:21.728Z,180.00
2024-01-19T15:25:22.480Z,185.62
2024-01-19T15:26:23.243Z,180.00
2024-01-19T15:27:24.008Z,168.75
2024-01-19T15:28:24.787Z,163.12
2024-01-19T15:29:25.539Z,163.12
2024-01-19T15:30:33.428Z,151.88
2024-01-19T15:31:27.990Z,140.62
2024-01-19T15:32:27.902Z,135.00
2024-01-19T15:33:28.270Z,129.38
2024-01-19T15:34:29.145Z,123.75
2024-01-19T15:35:29.888Z,118.12
2024-01-19T15:36:30.644Z,106.88
2024-01-19T15:37:31.422Z,101.25
2024-01-19T15:38:32.175Z,95.62
2024-01-19T15:39:32.924Z,90.00
2024-01-19T15:40:33.700Z,84.38
2024-01-19T15:41:34.432Z,78.75
2024-01-19T15:42:35.211Z,73.12
2024-01-19T15:43:35.979Z,73.12
2024-01-19T15:44:36.720Z,67.50
2024-01-19T15:45:37.480Z,61.88
2024-01-19T15:46:38.346Z,56.25
2024-01-19T15:47:39.196Z,56.25
2024-01-19T15:48:45.447Z,50.62
2024-01-19T15:49:41.891Z,45.00
2024-01-19T15:50:41.224Z,45.00
2024-01-19T15:51:42.074Z,39.38
2024-01-19T15:52:42.829Z,39.38
2024-01-19T15:53:43.586Z,33.75
2024-01-19T15:54:44.303Z,33.75
2024-01-19T15:55:45.104Z,28.12
2024-01-19T15:56:45.864Z,28.12
2024-01-19T15:57:46.604Z,22.50
2024-01-19T15:58:47.385Z,22.50
2024-01-19T15:59:48.115Z,16.88
2024-01-19T16:00:48.895Z,16.88
2024-01-19T16:01:49.737Z,16.88
2024-01-19T16:02:50.434Z,11.25
2024-01-19T16:03:51.270Z,11.25
2024-01-19T16:04:52.031Z,11.25
2024-01-19T16:05:52.810Z,11.25
2024-01-19T16:06:53.531Z,5.62
2024-01-19T16:07:54.348Z,5.62
2024-01-19T16:08:55.117Z,5.62
2024-01-19T16:09:55.875Z,5.62
2024-01-19T16:10:56.692Z,5.62
2024-01-19T16:11:57.411Z,5.62
2024-01-19T16:12:58.171Z,0.00
2024-01-19T16:13:58.986Z,0.00
2024-01-19T16:14:59.750Z,0.00
2024-01-19T16:16:00.494Z,0.00
2024-01-19T16:17:01.296Z,0.00
2024-01-19T16:18:02.252Z,0.00
2024-01-19T16:19:03.090Z,0.00
2024-01-19T16:20:03.903Z,0.00
2024-01-19T16:21:04.650Z,0.00
2024-01-19T16:22:05.402Z,0.00
2024-01-19T16:23:06.172Z,0.00
2024-01-19T16:24:07.020Z,0.00
2024-01-19T16:25:08.213Z,0.00
2024-01-19T16:26:08.632Z,0.00
2024-01-19T16:27:09.388Z,0.00
2024-01-19T16:28:10.141Z,0.00
2024-01-19T16:29:11.020Z,0.00
2024-01-19T16:30:11.792Z,0.00
2024-01-19T16:31:12.567Z,0.00
2024-01-19T16:32:13.457Z,0.00
2024-01-19T16:33:14.236Z,0.00
2024-01-19T16:34:15.006Z,0.00
2024-01-19T16:35:24.229Z,0.00
2024-01-19T16:36:17.476Z,0.00
2024-01-19T16:37:17.217Z,0.00
2024-01-19T16:38:18.025Z,0.00
2024-01-19T16:39:18.780Z,0.00
2024-01-19T16:40:19.520Z,0.00
2024-01-19T16:41:20.279Z,0.00
2024-01-19T16:42:21.065Z,0.00
2024-01-19T16:43:21.849Z,0.00
2024-01-19T16:44:22.720Z,0.00
2024-01-19T16:45:23.428Z,0.00
2024-01-19T16:46:24.185Z,0.00
2024-01-19T16:47:24.986Z,0.00
2024-01-19T16:48:26.086Z,0.00
2024-01-19T16:49:26.613Z,0.00
2024-01-19T16:50:27.385Z,0.00
2024-01-19T16:51:28.119Z,0.00
2024-01-19T16:52:28.951Z,0.00
2024-01-19T16:53:29.697Z,0.00
2024-01-19T16:54:30.452Z,0.00
2024-01-19T16:55:31.258Z,0.00
2024-01-19T16:56:34.801Z,0.00
2024-01-19T16:57:32.813Z,0.00
2024-01-19T16:58:33.602Z,0.00
2024-01-19T16:59:34.354Z,0.00
2024-01-19T17:00:35.101Z,0.00
2024-01-19T17:01:35.890Z,0.00
2024-01-19T17:02:36.671Z,0.00
2024-01-19T17:03:37.445Z,0.00
2024-01-19T17:04:38.289Z,0.00
2024-01-19T17:05:39.078Z,0.00
2024-01-19T17:06:39.828Z,0.00
2024-01-19T17:07:40.637Z,0.00
2024-01-19T17:08:41.382Z,0.00
2024-01-19T17:09:42.124Z,0.00
2024-01-19T17:10:42.920Z,0.00
2024-01-19T17:11:43.653Z,0.00
2024-01-19T17:12:44.412Z,0.00
2024-01-19T17:13:45.184Z,0.00
2024-01-19T17:14:45.952Z,0.00
2024-01-19T17:15:46.748Z,0.00
2024-01-19T17:16:49.128Z,0.00
2024-01-19T17:17:48.204Z,0.00
2024-01-19T17:18:49.007Z,0.00
2024-01-19T17:19:49.818Z,0.00
2024-01-19T17:20:50.592Z,0.00
2024-01-19T17:21:51.357Z,0.00
2024-01-19T17:22:52.162Z,0.00
2024-01-19T17:23:56.531Z,0.00
2024-01-19T17:24:53.723Z,0.00
2024-01-19T17:25:54.637Z,0.00
2024-01-19T17:26:55.369Z,0.00
2024-01-19T17:27:56.329Z,0.00
2024-01-19T17:28:57.173Z,0.00
2024-01-19T17:29:57.998Z,0.00
2024-01-19T17:30:58.890Z,0.00
2024-01-19T17:31:59.429Z,0.00
2024-01-19T17:33:00.380Z,0.00
2024-01-19T17:34:08.109Z,0.00
2024-01-19T17:35:02.751Z,0.00
2024-01-19T17:36:02.094Z,0.00
2024-01-19T17:37:02.881Z,0.00
2024-01-19T17:38:03.686Z,0.00
2024-01-19T17:39:04.528Z,0.00
2024-01-19T17:40:04.954Z,0.00
2024-01-19T17:41:05.976Z,0.00
2024-01-19T17:42:06.738Z,0.00
2024-01-19T17:43:07.540Z,0.00
2024-01-19T17:44:08.438Z,0.00
2024-01-19T17:45:16.313Z,0.00
2024-01-19T17:46:10.851Z,0.00
2024-01-19T17:47:10.603Z,0.00
2024-01-19T17:48:11.440Z,0.00
2024-01-19T17:49:12.230Z,0.00
2024-01-19T17:50:13.019Z,0.00
2024-01-19T17:51:13.752Z,0.00
2024-01-19T17:52:14.492Z,0.00
2024-01-19T17:53:15.336Z,0.00
2024-01-19T17:54:16.054Z,0.00
2024-01-19T17:55:16.811Z,0.00
2024-01-19T17:56:17.603Z,0.00
2024-01-19T17:57:18.397Z,0.00
2024-01-19T17:58:19.174Z,0.00
2024-01-19T17:59:19.959Z,0.00
2024-01-19T18:00:20.677Z,0.00
2024-01-19T18:01:21.435Z,0.00
2024-01-19T18:02:22.307Z,0.00
2024-01-19T18:03:22.968Z,0.00
2024-01-19T18:04:23.688Z,0.00
2024-01-19T18:05:24.508Z,0.00
2024-01-19T18:06:25.486Z,0.00
2024-01-19T18:07:25.834Z,0.00
2024-01-19T18:08:26.583Z,0.00
2024-01-19T18:09:29.223Z,0.00
2024-01-19T18:10:28.335Z,0.00
2024-01-19T18:11:29.130Z,0.00
2024-01-19T18:12:29.971Z,0.00
2024-01-19T18:13:30.948Z,0.00
2024-01-19T18:14:31.396Z,0.00
2024-01-19T18:15:32.359Z,0.00
2024-01-19T18:16:33.198Z,0.00
2024-01-19T18:17:34.028Z,0.00
2024-01-19T18:18:36.664Z,0.00
2024-01-19T18:19:35.622Z,0.00
2024-01-19T18:20:36.287Z,0.00
2024-01-19T18:21:37.177Z,0.00
2024-01-19T18:22:37.698Z,0.00
2024-01-19T18:23:38.467Z,0.00
2024-01-19T18:24:39.233Z,0.00
2024-01-19T18:25:40.153Z,0.00
2024-01-19T18:26:40.647Z,0.00
2024-01-19T18:27:41.476Z,0.00
2024-01-19T18:28:42.233Z,0.00
2024-01-19T18:29:43.029Z,0.00
2024-01-19T18:30:43.540Z,0.00
2024-01-19T18:31:44.416Z,0.00
2024-01-19T18:32:46.349Z,0.00
2024-01-19T18:33:46.164Z,0.00
2024-01-19T18:34:47.041Z,0.00
2024-01-19T18:35:47.846Z,0.00
2024-01-19T18:36:48.591Z,0.00
2024-01-19T18:37:49.376Z,0.00
2024-01-19T18:38:50.115Z,0.00
2024-01-19T18:39:50.896Z,0.00
2024-01-19T18:40:51.676Z,0.00
2024-01-19T18:41:52.394Z,0.00
2024-01-19T18:42:53.145Z,0.00
2024-01-19T18:43:53.950Z,0.00
2024-01-19T18:44:54.710Z,0.00
2024-01-19T18:45:55.461Z,0.00
2024-01-19T18:46:56.280Z,0.00
2024-01-19T18:47:57.104Z,0.00
2024-01-19T18:48:57.962Z,0.00
2024-01-19T18:49:58.488Z,0.00
2024-01-19T18:50:59.374Z,0.00
2024-01-19T18:52:00.366Z,0.00
2024-01-19T18:53:01.397Z,0.00
2024-01-19T18:54:01.958Z,0.00
2024-01-19T18:55:02.866Z,0.00
2024-01-19T18:56:03.810Z,0.00
2024-01-19T18:57:04.572Z,0.00
2024-01-19T18:58:07.422Z,0.00
2024-01-19T18:59:06.208Z,0.00
2024-01-19T19:00:07.094Z,0.00
2024-01-19T19:01:07.653Z,0.00
2024-01-19T19:02:08.255Z,0.00
2024-01-19T19:03:09.042Z,0.00
2024-01-19T19:04:10.104Z,0.00
2024-01-19T19:05:10.945Z,0.00
2024-01-19T19:06:11.699Z,0.00
2024-01-19T19:07:12.497Z,0.00
2024-01-19T19:08:13.489Z,0.00
2024-01-19T19:09:14.242Z,0.00
2024-01-19T19:10:15.205Z,0.00
2024-01-19T19:11:16.157Z,0.00
2024-01-19T19:12:16.996Z,0.00
2024-01-19T19:13:17.600Z,0.00
2024-01-19T19:14:21.542Z,0.00
2024-01-19T19:15:18.951Z,0.00
2024-01-19T19:16:30.190Z,0.00
2024-01-19T19:17:21.507Z,0.00
2024-01-19T19:18:21.391Z,0.00
2024-01-19T19:19:22.294Z,0.00
2024-01-19T19:20:23.218Z,0.00
2024-01-19T19:21:24.028Z,0.00
2024-01-19T19:22:24.793Z,0.00
2024-01-19T19:23:25.527Z,0.00
2024-01-19T19:24:26.280Z,0.00
2024-01-19T19:25:27.027Z,0.00
2024-01-19T19:26:27.859Z,0.00
2024-01-19T19:27:28.571Z,0.00
2024-01-19T19:28:29.322Z,0.00
2024-01-19T19:29:30.079Z,0.00
2024-01-19T19:30:30.854Z,0.00
2024-01-19T19:31:31.785Z,0.00
2024-01-19T19:32:32.719Z,0.00
2024-01-19T19:33:33.562Z,0.00
2024-01-19T19:34:34.350Z,0.00
2024-01-19T19:35:35.146Z,0.00
2024-01-19T19:36:35.898Z,0.00
2024-01-19T19:37:38.256Z,0.00
2024-01-19T19:38:37.188Z,0.00
2024-01-19T19:39:37.937Z,0.00
2024-01-19T19:40:38.796Z,0.00
2024-01-19T19:41:39.521Z,0.00
2024-01-19T19:42:40.264Z,0.00
2024-01-19T19:43:41.084Z,0.00
2024-01-19T19:44:41.854Z,0.00
2024-01-19T19:45:42.324Z,0.00
2024-01-19T19:46:43.187Z,0.00
2024-01-19T19:47:43.643Z,0.00
2024-01-19T19:48:44.449Z,0.00
2024-01-19T19:49:45.278Z,0.00
2024-01-19T19:50:45.991Z,0.00
2024-01-19T19:51:46.753Z,0.00
2024-01-19T19:52:47.520Z,0.00
2024-01-19T19:53:48.270Z,0.00
2024-01-19T19:54:49.056Z,0.00
2024-01-19T19:55:49.846Z,0.00
2024-01-19T19:56:50.554Z,0.00
2024-01-19T19:57:51.305Z,0.00
2024-01-19T19:58:52.203Z,0.00
2024-01-19T19:59:52.936Z,0.00
2024-01-19T20:00:53.705Z,0.00
2024-01-19T20:01:54.473Z,0.00
2024-01-19T20:02:55.232Z,0.00
2024-01-19T20:03:56.017Z,0.00
2024-01-19T20:04:56.838Z,0.00
2024-01-19T20:05:57.539Z,0.00
2024-01-19T20:06:58.288Z,0.00
2024-01-19T20:07:59.125Z,0.00
2024-01-19T20:08:59.959Z,0.00
2024-01-19T20:10:00.957Z,0.00
2024-01-19T20:11:01.322Z,0.00
2024-01-19T20:12:01.826Z,0.00
2024-01-19T20:13:02.659Z,0.00
2024-01-19T20:14:03.219Z,0.00
2024-01-19T20:15:03.974Z,0.00
2024-01-19T20:16:04.768Z,0.00
2024-01-19T20:17:05.603Z,0.00
2024-01-19T20:18:06.451Z,0.00
2024-01-19T20:19:07.328Z,0.00
2024-01-19T20:20:08.197Z,0.00
2024-01-19T20:21:09.012Z,0.00
2024-01-19T20:22:09.837Z,0.00
2024-01-19T20:23:10.646Z,0.00
2024-01-19T20:24:11.420Z,0.00
2024-01-19T20:25:12.055Z,0.00
2024-01-19T20:26:12.788Z,0.00
2024-01-19T20:27:13.431Z,0.00
2024-01-19T20:28:14.234Z,0.00
2024-01-19T20:29:15.371Z,0.00
2024-01-19T20:30:15.697Z,0.00
2024-01-19T20:31:16.557Z,0.00
2024-01-19T20:32:17.400Z,0.00
2024-01-19T20:33:18.330Z,0.00
2024-01-19T20:34:18.757Z,0.00
2024-01-19T20:35:19.339Z,0.00
2024-01-19T20:36:19.861Z,0.00
2024-01-19T20:37:20.651Z,0.00
2024-01-19T20:38:21.491Z,0.00
2024-01-19T20:39:22.376Z,0.00
2024-01-19T20:40:23.154Z,0.00
2024-01-19T20:41:23.973Z,0.00
2024-01-19T20:42:24.722Z,0.00
2024-01-19T20:43:25.469Z,0.00
2024-01-19T20:44:26.225Z,0.00
2024-01-19T20:45:27.009Z,0.00
2024-01-19T20:46:27.764Z,0.00
2024-01-19T20:47:28.544Z,0.00
2024-01-19T20:48:29.353Z,0.00
2024-01-19T20:49:30.066Z,0.00
2024-01-19T20:50:30.870Z,0.00
2024-01-19T20:51:31.608Z,0.00
2024-01-19T20:52:32.377Z,0.00
2024-01-19T20:53:33.113Z,0.00
2024-01-19T20:54:33.900Z,0.00
2024-01-19T20:55:34.731Z,0.00
2024-01-19T20:56:35.449Z,0.00
2024-01-19T20:57:36.319Z,0.00
2024-01-19T20:58:37.308Z,0.00
2024-01-19T20:59:38.065Z,0.00
2024-01-19T21:00:38.595Z,0.00
2024-01-19T21:01:39.321Z,0.00
2024-01-19T21:02:40.092Z,0.00
2024-01-19T21:03:40.638Z,0.00
2024-01-19T21:04:42.344Z,0.00
2024-01-19T21:05:42.472Z,0.00
2024-01-19T21:06:42.984Z,0.00
2024-01-19T21:07:43.805Z,0.00
2024-01-19T21:08:44.659Z,0.00
2024-01-19T21:09:46.308Z,0.00
2024-01-19T21:10:46.502Z,0.00
2024-01-19T21:11:47.352Z,0.00
2024-01-19T21:12:48.181Z,0.00
2024-01-19T21:13:49.004Z,0.00
2024-01-19T21:14:49.620Z,0.00
2024-01-19T21:15:50.478Z,0.00
2024-01-19T21:16:51.332Z,0.00
2024-01-19T21:17:52.199Z,0.00
2024-01-19T21:18:53.096Z,0.00
2024-01-19T21:19:54.014Z,0.00
2024-01-19T21:20:57.464Z,0.00
2024-01-19T21:21:55.421Z,0.00
2024-01-19T21:22:56.233Z,0.00
2024-01-19T21:23:57.011Z,0.00
2024-01-19T21:24:57.761Z,0.00
2024-01-19T21:25:58.521Z,0.00
2024-01-19T21:26:59.281Z,0.00
2024-01-19T21:28:02.828Z,0.00
2024-01-19T21:29:00.846Z,0.00
2024-01-19T21:30:01.564Z,0.00
2024-01-19T21:31:02.320Z,0.00
2024-01-19T21:32:02.928Z,0.00
2024-01-19T21:33:03.702Z,0.00
2024-01-19T21:34:04.430Z,0.00
2024-01-19T21:35:05.365Z,0.00
2024-01-19T21:36:06.167Z,0.00
2024-01-19T21:37:07.056Z,0.00
2024-01-19T21:38:07.923Z,0.00
2024-01-19T21:39:08.709Z,0.00